createdAt,value
2018-06-29T00:00:02.732Z,156.67
2018-06-29T00:02:31.260Z,142.97
2018-06-29T00:04:59.795Z,164.03
2018-06-29T00:07:28.274Z,179.03
2018-06-29T00:09:56.836Z,211.80
2018-06-29T00:12:25.341Z,230.00
2018-06-29T00:14:53.893Z,220.13
2018-06-29T00:17:22.376Z,260.33
2018-06-29T00:19:50.880Z,288.43
2018-06-29T00:22:19.361Z,342.07
2018-06-29T00:24:47.893Z,366.57
2018-06-29T00:27:16.381Z,337.17
2018-06-29T00:29:44.559Z,372.00
2018-06-29T00:32:13.081Z,401.43
2018-06-29T00:34:41.562Z,352.67
2018-06-29T00:37:10.156Z,376.27
2018-06-29T00:39:38.699Z,383.10
2018-06-29T00:42:07.384Z,384.00
2018-06-29T00:44:35.950Z,414.23
2018-06-29T00:47:04.187Z,410.70
2018-06-29T00:49:32.667Z,415.27
2018-06-29T00:52:01.229Z,449.87
2018-06-29T00:54:29.722Z,452.83
2018-06-29T00:56:58.213Z,443.23
2018-06-29T00:59:26.729Z,446.27
2018-06-29T01:01:55.749Z,409.53
2018-06-29T01:04:24.265Z,386.63
2018-06-29T01:06:52.809Z,411.80
2018-06-29T01:09:21.333Z,365.60
2018-06-29T01:11:49.844Z,310.13
2018-06-29T01:14:18.384Z,274.10
2018-06-29T01:16:46.878Z,268.10
2018-06-29T01:19:15.399Z,257.33
2018-06-29T01:21:43.898Z,234.17
2018-06-29T01:24:12.468Z,232.57
2018-06-29T01:26:41.169Z,247.07
2018-06-29T01:29:09.418Z,252.87
2018-06-29T01:31:37.960Z,235.47
2018-06-29T01:34:06.503Z,242.97
2018-06-29T01:36:35.054Z,250.17
2018-06-29T01:39:04.139Z,239.70
2018-06-29T01:41:32.774Z,249.53
2018-06-29T01:44:01.184Z,255.10
2018-06-29T01:46:29.691Z,226.23
2018-06-29T01:48:58.174Z,271.63
2018-06-29T01:51:26.900Z,260.97
2018-06-29T01:53:55.400Z,237.47
2018-06-29T01:56:23.965Z,251.60
2018-06-29T01:58:52.621Z,244.70
2018-06-29T02:01:21.250Z,255.60
2018-06-29T02:03:49.471Z,252.43
2018-06-29T02:06:17.996Z,248.20
2018-06-29T02:08:46.567Z,245.30
2018-06-29T02:11:15.101Z,250.33
2018-06-29T02:13:43.597Z,256.97
2018-06-29T02:16:12.133Z,258.10
2018-06-29T02:18:40.626Z,246.17
2018-06-29T02:21:09.176Z,272.87
2018-06-29T02:23:37.732Z,258.10
2018-06-29T02:26:06.261Z,265.20
2018-06-29T02:28:34.801Z,270.67
2018-06-29T02:31:03.401Z,281.90
2018-06-29T02:33:31.938Z,280.60
2018-06-29T02:36:00.501Z,277.37
2018-06-29T02:38:29.008Z,291.37
2018-06-29T02:40:57.483Z,284.40
2018-06-29T02:43:26.017Z,302.20
2018-06-29T02:45:54.543Z,276.40
2018-06-29T02:48:22.787Z,302.63
2018-06-29T02:50:51.251Z,302.43
2018-06-29T02:53:19.785Z,294.00
2018-06-29T02:55:47.982Z,285.73
2018-06-29T02:58:16.529Z,289.67
2018-06-29T03:00:45.025Z,301.90
2018-06-29T03:03:13.577Z,296.87
2018-06-29T03:05:42.076Z,300.67
2018-06-29T03:08:10.622Z,303.97
2018-06-29T03:10:39.152Z,308.83
2018-06-29T03:13:08.021Z,301.20
2018-06-29T03:15:36.524Z,288.20
2018-06-29T03:18:05.181Z,309.93
2018-06-29T03:20:33.760Z,288.87
2018-06-29T03:23:02.253Z,296.57
2018-06-29T03:25:30.788Z,306.80
2018-06-29T03:27:59.335Z,318.07
2018-06-29T03:30:27.813Z,292.33
2018-06-29T03:32:56.402Z,296.97
2018-06-29T03:35:24.921Z,297.00
2018-06-29T03:37:53.657Z,290.57
2018-06-29T03:40:22.373Z,291.47
2018-06-29T03:42:51.056Z,385.30
2018-06-29T03:45:19.752Z,383.07
2018-06-29T03:47:48.290Z,381.13
2018-06-29T03:50:16.786Z,372.17
2018-06-29T03:52:45.254Z,288.67
2018-06-29T03:55:13.848Z,295.10
2018-06-29T03:57:42.396Z,307.97
2018-06-29T04:00:11.212Z,303.33
2018-06-29T04:02:39.780Z,347.67
2018-06-29T04:05:08.590Z,369.20
2018-06-29T04:07:37.108Z,379.73
2018-06-29T04:10:05.676Z,405.70
2018-06-29T04:12:34.213Z,479.00
2018-06-29T04:15:02.756Z,472.03
2018-06-29T04:17:31.281Z,441.57
2018-06-29T04:19:59.810Z,408.23
2018-06-29T04:22:28.291Z,311.73
2018-06-29T04:25:00.172Z,308.60
2018-06-29T04:27:28.386Z,329.70
2018-06-29T04:29:56.935Z,305.90
2018-06-29T04:32:25.457Z,316.73
2018-06-29T04:34:54.048Z,333.40
2018-06-29T04:37:22.568Z,406.40
2018-06-29T04:39:51.494Z,370.10
2018-06-29T04:42:20.017Z,402.07
2018-06-29T04:44:48.565Z,414.47
2018-06-29T04:47:17.324Z,433.60
2018-06-29T04:49:45.817Z,432.13
2018-06-29T04:52:14.332Z,434.60
2018-06-29T04:54:42.816Z,466.50
2018-06-29T04:57:11.371Z,493.67
2018-06-29T04:59:39.937Z,526.63
2018-06-29T05:02:08.194Z,554.83
2018-06-29T05:04:36.725Z,537.20
2018-06-29T05:07:05.378Z,533.93
2018-06-29T05:09:33.729Z,536.23
2018-06-29T05:12:02.268Z,519.70
2018-06-29T05:14:30.872Z,512.73
2018-06-29T05:16:59.421Z,487.43
2018-06-29T05:19:27.996Z,480.40
2018-06-29T05:21:56.493Z,460.00
2018-06-29T05:24:25.168Z,443.17
2018-06-29T05:26:53.709Z,460.57
2018-06-29T05:29:22.507Z,450.07
2018-06-29T05:31:51.066Z,457.70
2018-06-29T05:34:19.577Z,458.43
2018-06-29T05:36:48.141Z,444.57
2018-06-29T05:39:16.662Z,468.67
2018-06-29T05:41:45.296Z,495.37
2018-06-29T05:44:13.757Z,496.77
2018-06-29T05:46:42.553Z,508.50
2018-06-29T05:49:11.048Z,463.23
2018-06-29T05:51:39.572Z,512.67
2018-06-29T05:54:08.151Z,511.53
2018-06-29T05:56:36.733Z,560.77
2018-06-29T05:59:05.327Z,499.07
2018-06-29T06:01:33.936Z,439.90
2018-06-29T06:04:02.519Z,439.73
2018-06-29T06:06:31.081Z,451.83
2018-06-29T06:08:59.580Z,485.93
2018-06-29T06:11:28.145Z,321.97
2018-06-29T06:13:56.629Z,321.70
2018-06-29T06:16:25.267Z,290.50
2018-06-29T06:21:01.981Z,257.27
2018-06-29T06:23:30.552Z,333.03
2018-06-29T06:25:59.114Z,435.27
2018-06-29T06:28:27.681Z,419.50
2018-06-29T06:30:56.249Z,343.17
2018-06-29T06:33:24.787Z,449.33
2018-06-29T06:35:53.342Z,415.93
2018-06-29T06:38:21.930Z,432.47
2018-06-29T06:40:50.456Z,403.93
2018-06-29T06:43:18.993Z,407.00
2018-06-29T06:45:47.581Z,400.83
2018-06-29T06:48:16.128Z,362.83
2018-06-29T06:50:44.681Z,374.13
2018-06-29T06:53:13.192Z,355.47
2018-06-29T06:55:41.796Z,432.43
2018-06-29T06:58:10.047Z,453.37
2018-06-29T07:00:38.565Z,443.77
2018-06-29T07:03:07.136Z,487.47
2018-06-29T07:05:35.708Z,430.77
2018-06-29T07:08:04.335Z,411.67
2018-06-29T07:10:32.860Z,402.80
2018-06-29T07:13:01.421Z,392.00
2018-06-29T07:15:30.047Z,365.07
2018-06-29T07:17:58.810Z,221.53
2018-06-29T07:20:27.325Z,217.27
2018-06-29T07:22:55.881Z,190.37
2018-06-29T07:25:24.383Z,214.67
2018-06-29T07:27:52.971Z,142.33
2018-06-29T07:30:21.648Z,192.73
2018-06-29T07:32:50.195Z,200.57
2018-06-29T07:35:18.749Z,114.23
2018-06-29T07:37:47.292Z,110.07
2018-06-29T07:40:15.843Z,122.43
2018-06-29T07:42:44.341Z,127.93
2018-06-29T07:45:12.920Z,125.03
2018-06-29T07:47:41.459Z,132.70
2018-06-29T07:50:10.015Z,143.13
2018-06-29T07:52:38.559Z,125.53
2018-06-29T07:55:07.752Z,158.60
2018-06-29T07:57:36.279Z,114.07
2018-06-29T08:00:05.208Z,146.77
2018-06-29T08:02:35.121Z,122.30
2018-06-29T08:05:03.809Z,106.37
2018-06-29T08:07:33.817Z,85.83
2018-06-29T08:10:03.383Z,91.73
2018-06-29T08:12:32.053Z,81.83
2018-06-29T08:15:00.641Z,80.80
2018-06-29T08:17:29.135Z,68.70
2018-06-29T08:19:57.664Z,74.40
2018-06-29T08:22:26.173Z,75.57
2018-06-29T08:25:05.289Z,84.43
2018-06-29T08:27:33.816Z,80.50
2018-06-29T08:30:02.790Z,84.93
2018-06-29T08:32:31.348Z,80.53
2018-06-29T08:34:59.902Z,75.63
2018-06-29T08:37:28.420Z,131.30
2018-06-29T08:39:56.970Z,149.33
2018-06-29T08:42:25.660Z,217.70
2018-06-29T08:44:54.173Z,196.33
2018-06-29T08:47:22.786Z,143.63
2018-06-29T08:49:51.382Z,180.00
2018-06-29T08:52:19.948Z,364.93
2018-06-29T08:54:48.519Z,401.40
2018-06-29T08:57:17.145Z,398.57
2018-06-29T08:59:45.686Z,401.50
2018-06-29T09:02:14.206Z,89.03
2018-06-29T09:04:42.704Z,136.87
2018-06-29T09:07:11.389Z,88.73
2018-06-29T09:09:39.976Z,46.20
2018-06-29T09:12:08.560Z,38.70
2018-06-29T09:14:37.046Z,34.37
2018-06-29T09:17:05.677Z,25.00
2018-06-29T09:19:34.286Z,21.40
2018-06-29T09:22:02.812Z,26.30
2018-06-29T09:24:31.312Z,24.53
2018-06-29T09:26:59.886Z,33.00
2018-06-29T09:29:28.407Z,27.10
2018-06-29T09:31:56.958Z,45.27
2018-06-29T09:34:25.520Z,34.57
2018-06-29T09:36:54.114Z,41.80
2018-06-29T09:39:22.379Z,76.37
2018-06-29T09:41:50.998Z,87.60
2018-06-29T09:44:19.573Z,83.97
2018-06-29T09:46:48.395Z,91.60
2018-06-29T09:49:16.923Z,68.80
2018-06-29T09:51:45.409Z,70.80
2018-06-29T09:54:13.933Z,76.20
2018-06-29T09:56:42.483Z,56.27
2018-06-29T09:59:11.018Z,55.60
2018-06-29T10:01:40.144Z,57.60
2018-06-29T10:04:08.697Z,42.20
2018-06-29T10:06:37.200Z,58.53
2018-06-29T10:09:07.947Z,52.50
2018-06-29T10:11:36.600Z,58.00
2018-06-29T10:14:05.340Z,57.50
2018-06-29T10:16:33.893Z,66.17
2018-06-29T10:19:02.520Z,102.93
2018-06-29T10:21:31.020Z,85.00
2018-06-29T10:24:01.089Z,90.43
2018-06-29T10:26:29.736Z,78.90
2018-06-29T10:28:58.301Z,117.40
2018-06-29T10:31:26.821Z,117.33
2018-06-29T10:33:55.381Z,112.47
2018-06-29T10:36:23.966Z,95.43
2018-06-29T10:38:52.503Z,116.07
2018-06-29T10:41:21.152Z,110.63
2018-06-29T10:43:49.656Z,120.90
2018-06-29T10:46:18.277Z,133.73
2018-06-29T10:48:46.828Z,85.43
2018-06-29T10:51:15.364Z,43.17
2018-06-29T10:53:43.872Z,64.73
2018-06-29T10:56:12.475Z,51.17
2018-06-29T10:58:41.009Z,43.47
2018-06-29T11:01:09.610Z,27.07
2018-06-29T11:03:38.181Z,19.17
2018-06-29T11:06:06.722Z,21.43
2018-06-29T11:08:35.277Z,27.67
2018-06-29T11:11:05.526Z,35.07
2018-06-29T11:13:34.117Z,27.50
2018-06-29T11:16:02.339Z,60.93
2018-06-29T11:18:30.906Z,30.37
2018-06-29T11:20:59.404Z,51.10
2018-06-29T11:23:28.001Z,57.00
2018-06-29T11:25:56.507Z,34.27
2018-06-29T11:28:25.056Z,46.47
2018-06-29T11:30:53.624Z,83.50
2018-06-29T11:33:22.129Z,98.40
2018-06-29T11:35:50.668Z,100.80
2018-06-29T11:38:19.192Z,93.23
2018-06-29T11:40:47.769Z,115.57
2018-06-29T11:43:16.339Z,103.27
2018-06-29T11:45:44.909Z,98.20
2018-06-29T11:48:13.465Z,104.57
2018-06-29T11:50:42.046Z,88.70
2018-06-29T11:53:11.275Z,125.27
2018-06-29T11:55:40.629Z,105.93
2018-06-29T11:58:09.174Z,115.40
2018-06-29T12:00:37.874Z,125.77
2018-06-29T12:03:06.376Z,120.10
2018-06-29T12:05:34.876Z,102.83
2018-06-29T12:08:03.475Z,50.93
2018-06-29T12:10:32.002Z,46.33
2018-06-29T12:13:00.524Z,61.47
2018-06-29T12:15:29.132Z,64.00
2018-06-29T12:17:57.338Z,83.87
2018-06-29T12:20:25.889Z,22.90
2018-06-29T12:22:54.399Z,17.77
2018-06-29T12:25:22.947Z,14.57
2018-06-29T12:27:51.462Z,12.20
2018-06-29T12:30:20.031Z,11.73
2018-06-29T12:32:48.238Z,11.07
2018-06-29T12:35:16.801Z,11.90
2018-06-29T12:37:45.322Z,11.37
2018-06-29T12:40:13.944Z,12.13
2018-06-29T12:42:42.480Z,13.40
2018-06-29T12:45:11.078Z,12.73
2018-06-29T12:47:40.620Z,13.07
2018-06-29T12:50:11.717Z,13.67
2018-06-29T12:52:41.882Z,15.23
2018-06-29T12:55:11.318Z,21.60
2018-06-29T12:57:41.693Z,18.40
2018-06-29T13:00:11.773Z,17.20
2018-06-29T13:02:42.548Z,15.33
2018-06-29T13:05:12.742Z,15.47
2018-06-29T13:07:43.860Z,16.83
2018-06-29T13:10:16.506Z,17.47
2018-06-29T13:12:47.993Z,18.13
2018-06-29T13:15:18.970Z,22.70
2018-06-29T13:17:49.295Z,22.80
2018-06-29T13:20:19.662Z,15.73
2018-06-29T13:22:54.143Z,18.47
2018-06-29T13:25:28.196Z,16.53
2018-06-29T13:28:02.146Z,47.47
2018-06-29T13:30:34.441Z,113.10
2018-06-29T13:33:06.920Z,122.80
2018-06-29T13:35:38.569Z,103.03
2018-06-29T13:38:10.009Z,86.83
2018-06-29T13:40:43.074Z,85.67
2018-06-29T13:43:14.537Z,85.27
2018-06-29T13:45:46.360Z,35.90
2018-06-29T13:48:16.475Z,133.10
2018-06-29T13:50:46.683Z,141.47
2018-06-29T13:53:17.474Z,17.77
2018-06-29T13:55:47.452Z,26.90
2018-06-29T13:58:18.359Z,18.30
2018-06-29T14:00:47.583Z,28.03
2018-06-29T14:03:16.263Z,128.77
2018-06-29T14:05:44.783Z,70.73
2018-06-29T14:08:13.028Z,26.63
2018-06-29T14:10:41.532Z,16.87
2018-06-29T14:13:09.763Z,22.93
2018-06-29T14:15:38.305Z,26.00
2018-06-29T14:18:06.674Z,15.80
2018-06-29T14:20:35.200Z,15.83
2018-06-29T14:23:03.749Z,15.70
2018-06-29T14:25:31.974Z,14.93
2018-06-29T14:28:00.768Z,15.60
2018-06-29T14:30:29.336Z,14.50
2018-06-29T14:32:57.985Z,28.57
2018-06-29T14:35:26.573Z,38.30
2018-06-29T14:37:54.771Z,45.23
2018-06-29T14:40:23.352Z,35.60
2018-06-29T14:42:52.009Z,35.33
2018-06-29T14:45:20.264Z,30.20
2018-06-29T14:47:48.773Z,57.47
2018-06-29T14:50:17.304Z,49.23
2018-06-29T14:52:45.865Z,36.60
2018-06-29T14:55:14.398Z,39.87
2018-06-29T14:57:42.966Z,34.67
2018-06-29T15:00:11.958Z,26.97
2018-06-29T15:02:41.197Z,23.13
2018-06-29T15:05:10.201Z,20.50
2018-06-29T15:07:38.845Z,40.83
2018-06-29T15:10:07.547Z,42.87
2018-06-29T15:12:36.117Z,35.97
2018-06-29T15:15:04.794Z,24.07
2018-06-29T15:17:33.518Z,31.60
2018-06-29T15:20:02.102Z,30.80
2018-06-29T15:22:30.637Z,12.40
2018-06-29T15:24:59.428Z,9.53
2018-06-29T15:27:28.143Z,13.73
2018-06-29T15:29:56.742Z,13.70
2018-06-29T15:32:24.959Z,20.20
2018-06-29T15:34:53.475Z,32.27
2018-06-29T15:37:21.974Z,27.70
2018-06-29T15:39:50.569Z,54.50
2018-06-29T15:42:19.019Z,61.27
2018-06-29T15:44:47.580Z,104.03
2018-06-29T15:47:16.096Z,135.90
2018-06-29T15:49:44.622Z,93.37
2018-06-29T15:52:13.151Z,94.77
2018-06-29T15:54:41.627Z,60.83
2018-06-29T15:57:10.141Z,49.00
2018-06-29T15:59:38.626Z,54.80
2018-06-29T16:02:07.135Z,80.70
2018-06-29T16:04:35.623Z,134.93
2018-06-29T16:07:04.203Z,95.13
2018-06-29T16:09:32.683Z,87.30
2018-06-29T16:12:01.231Z,80.97
2018-06-29T16:14:29.688Z,122.47
2018-06-29T16:16:58.207Z,154.57
2018-06-29T16:19:26.720Z,163.23
2018-06-29T16:21:55.256Z,163.23
2018-06-29T16:24:23.877Z,148.30
2018-06-29T16:26:52.732Z,136.53
2018-06-29T16:29:21.424Z,56.10
2018-06-29T16:31:49.955Z,41.37
2018-06-29T16:34:18.485Z,51.10
2018-06-29T16:36:46.943Z,42.03
2018-06-29T16:39:15.491Z,64.03
2018-06-29T16:41:43.963Z,94.63
2018-06-29T16:44:12.459Z,48.47
2018-06-29T16:46:40.964Z,40.70
2018-06-29T16:49:09.483Z,36.97
2018-06-29T16:51:40.729Z,53.90
2018-06-29T16:54:09.315Z,45.33
2018-06-29T16:56:37.795Z,54.93
2018-06-29T16:59:06.319Z,58.10
2018-06-29T17:01:34.793Z,61.73
2018-06-29T17:04:02.998Z,108.23
2018-06-29T17:06:31.518Z,105.37
2018-06-29T17:08:59.996Z,81.80
2018-06-29T17:11:28.795Z,80.57
2018-06-29T17:13:57.335Z,62.27
2018-06-29T17:16:26.259Z,54.00
2018-06-29T17:18:54.891Z,60.63
2018-06-29T17:21:23.301Z,44.00
2018-06-29T17:23:51.796Z,48.47
2018-06-29T17:26:20.317Z,45.73
2018-06-29T17:28:48.894Z,35.53
2018-06-29T17:31:17.377Z,41.87
2018-06-29T17:33:45.925Z,41.30
2018-06-29T17:36:14.439Z,30.53
2018-06-29T17:38:42.942Z,46.97
2018-06-29T17:41:11.456Z,43.37
2018-06-29T17:43:40.503Z,47.87
2018-06-29T17:46:09.105Z,40.90
2018-06-29T17:48:37.614Z,38.77
2018-06-29T17:51:06.382Z,50.63
2018-06-29T17:53:34.918Z,29.10
2018-06-29T17:56:03.575Z,11.90
2018-06-29T17:58:32.152Z,10.60
2018-06-29T18:01:00.334Z,16.20
2018-06-29T18:03:28.798Z,18.90
2018-06-29T18:05:59.355Z,13.97
2018-06-29T18:08:29.436Z,17.53
2018-06-29T18:10:57.694Z,34.70
2018-06-29T18:13:25.901Z,25.60
2018-06-29T18:15:54.499Z,31.10
2018-06-29T18:18:23.024Z,92.60
2018-06-29T18:20:51.512Z,108.30
2018-06-29T18:23:20.120Z,160.47
2018-06-29T18:25:48.641Z,147.63
2018-06-29T18:28:17.161Z,144.00
2018-06-29T18:30:45.719Z,104.60
2018-06-29T18:33:17.976Z,109.83
2018-06-29T18:35:49.260Z,96.30
2018-06-29T18:38:17.776Z,95.80
2018-06-29T18:40:46.330Z,96.37
2018-06-29T18:43:14.833Z,92.57
2018-06-29T18:45:43.329Z,70.40
2018-06-29T18:48:11.825Z,65.87
2018-06-29T18:50:40.327Z,77.63
2018-06-29T18:53:08.851Z,23.27
2018-06-29T18:55:37.387Z,20.03
2018-06-29T18:58:06.181Z,25.80
2018-06-29T19:00:39.171Z,19.90
2018-06-29T19:03:07.736Z,20.30
2018-06-29T19:05:36.209Z,25.97
2018-06-29T19:08:04.731Z,28.33
2018-06-29T19:10:33.164Z,30.53
2018-06-29T19:13:01.681Z,23.07
2018-06-29T19:15:30.133Z,39.27
2018-06-29T19:17:58.602Z,118.60
2018-06-29T19:20:27.136Z,83.67
2018-06-29T19:22:55.576Z,77.67
2018-06-29T19:25:24.200Z,76.93
2018-06-29T19:27:52.761Z,41.00
2018-06-29T19:30:21.279Z,150.47
2018-06-29T19:32:49.896Z,185.63
2018-06-29T19:35:18.372Z,136.77
2018-06-29T19:37:47.248Z,85.73
2018-06-29T19:40:15.792Z,79.57
2018-06-29T19:42:44.239Z,94.30
2018-06-29T19:45:12.809Z,112.90
2018-06-29T19:47:41.331Z,156.63
2018-06-29T19:50:09.911Z,226.07
2018-06-29T19:52:38.452Z,285.53
2018-06-29T19:55:06.970Z,264.10
2018-06-29T19:57:35.546Z,221.50
2018-06-29T20:00:04.185Z,198.60
2018-06-29T20:02:32.718Z,171.83
2018-06-29T20:05:01.271Z,138.60
2018-06-29T20:07:29.769Z,117.10
2018-06-29T20:09:58.318Z,81.90
2018-06-29T20:12:26.822Z,93.03
2018-06-29T20:14:55.338Z,86.07
2018-06-29T20:17:23.876Z,92.27
2018-06-29T20:19:52.366Z,91.27
2018-06-29T20:22:20.907Z,97.17
2018-06-29T20:24:49.362Z,96.27
2018-06-29T20:27:17.845Z,96.77
2018-06-29T20:29:46.346Z,116.80
2018-06-29T20:32:14.866Z,136.83
2018-06-29T20:34:43.417Z,120.13
2018-06-29T20:37:11.925Z,113.63
2018-06-29T20:39:40.468Z,112.77
2018-06-29T20:42:09.061Z,106.70
2018-06-29T20:44:37.579Z,122.47
2018-06-29T20:47:06.067Z,113.13
2018-06-29T20:49:34.617Z,112.30
2018-06-29T20:52:03.089Z,110.03
2018-06-29T20:54:31.605Z,193.67
2018-06-29T20:57:00.124Z,141.17
2018-06-29T20:59:28.633Z,145.07
2018-06-29T21:01:57.128Z,133.33
2018-06-29T21:04:25.605Z,129.83
2018-06-29T21:06:54.106Z,135.27
2018-06-29T21:09:22.548Z,132.23
2018-06-29T21:11:51.011Z,144.83
2018-06-29T21:14:19.520Z,149.30
2018-06-29T21:16:47.970Z,150.20
2018-06-29T21:19:16.169Z,164.63
2018-06-29T21:21:44.642Z,164.90
2018-06-29T21:24:13.184Z,190.33
2018-06-29T21:26:41.671Z,193.97
2018-06-29T21:29:10.135Z,207.57
2018-06-29T21:31:38.607Z,225.03
2018-06-29T21:34:07.107Z,226.80
2018-06-29T21:36:35.579Z,200.17
2018-06-29T21:39:06.990Z,225.17
2018-06-29T21:41:35.517Z,230.30
2018-06-29T21:44:04.131Z,215.33
2018-06-29T21:46:32.811Z,229.50
2018-06-29T21:49:01.439Z,228.87
2018-06-29T21:51:30.004Z,232.07
2018-06-29T21:53:58.598Z,250.87
2018-06-29T21:56:27.112Z,238.87
2018-06-29T21:58:56.468Z,261.40
2018-06-29T22:01:25.036Z,267.00
2018-06-29T22:03:54.051Z,275.33
2018-06-29T22:06:22.466Z,282.57
2018-06-29T22:08:51.040Z,294.17
2018-06-29T22:11:20.018Z,274.67
2018-06-29T22:13:48.508Z,279.50
2018-06-29T22:16:17.036Z,260.00
2018-06-29T22:18:45.583Z,281.93
2018-06-29T22:21:14.168Z,219.50
2018-06-29T22:23:42.756Z,249.57
2018-06-29T22:26:11.241Z,222.43
2018-06-29T22:28:39.930Z,261.53
2018-06-29T22:31:08.408Z,213.87
2018-06-29T22:33:36.956Z,211.90
2018-06-29T22:36:05.142Z,233.67
2018-06-29T22:38:33.687Z,252.37
2018-06-29T22:41:02.185Z,235.37
2018-06-29T22:43:30.729Z,255.53
2018-06-29T22:45:59.286Z,245.67
2018-06-29T22:48:27.816Z,181.97
2018-06-29T22:50:56.946Z,202.67
2018-06-29T22:53:25.469Z,223.07
2018-06-29T22:55:56.715Z,246.87
2018-06-29T22:58:25.272Z,236.37
2018-06-29T23:00:54.035Z,319.93
2018-06-29T23:03:23.720Z,387.93
2018-06-29T23:05:52.861Z,424.80
2018-06-29T23:08:21.325Z,429.27
2018-06-29T23:10:49.832Z,371.97
2018-06-29T23:13:18.693Z,414.07
2018-06-29T23:15:48.499Z,385.07
2018-06-29T23:18:16.978Z,342.17
2018-06-29T23:20:46.003Z,338.13
2018-06-29T23:23:14.508Z,343.20
2018-06-29T23:25:43.253Z,328.20
2018-06-29T23:28:11.699Z,266.20
2018-06-29T23:30:40.358Z,249.73
2018-06-29T23:33:08.846Z,265.47
2018-06-29T23:35:37.332Z,303.40
2018-06-29T23:38:06.132Z,330.00
2018-06-29T23:40:34.631Z,301.20
2018-06-29T23:43:03.078Z,269.13
2018-06-29T23:45:31.654Z,304.53
2018-06-29T23:48:00.088Z,383.67
2018-06-29T23:50:28.566Z,318.20
2018-06-29T23:52:57.066Z,270.97
2018-06-29T23:55:25.577Z,232.67
2018-06-29T23:57:54.043Z,196.50
